createdAt,value
2023-01-08T00:01:17.386Z,3.55
2023-01-08T00:03:44.399Z,3.55
2023-01-08T00:06:15.061Z,2.45
2023-01-08T00:08:42.535Z,2.80
2023-01-08T00:11:11.573Z,2.95
2023-01-08T00:16:06.555Z,3.03
2023-01-08T00:18:33.357Z,3.78
2023-01-08T00:21:00.241Z,2.83
2023-01-08T00:23:27.164Z,3.75
2023-01-08T00:25:54.011Z,3.13
2023-01-08T00:28:23.169Z,3.50
2023-01-08T00:30:49.936Z,3.28
2023-01-08T00:33:16.762Z,3.00
2023-01-08T00:35:43.552Z,3.30
2023-01-08T00:38:10.320Z,3.10
2023-01-08T00:40:37.397Z,3.65
2023-01-08T00:43:04.216Z,3.05
2023-01-08T00:45:32.339Z,3.33
2023-01-08T00:47:59.536Z,3.20
2023-01-08T00:50:26.891Z,2.92
2023-01-08T00:52:54.088Z,2.97
2023-01-08T00:55:20.808Z,2.70
2023-01-08T00:57:47.532Z,3.05
2023-01-08T01:00:16.339Z,3.25
2023-01-08T01:02:45.364Z,3.05
2023-01-08T01:07:39.211Z,2.85
2023-01-08T01:10:07.120Z,3.20
2023-01-08T01:12:33.894Z,3.30
2023-01-08T01:15:00.626Z,2.83
2023-01-08T01:17:27.393Z,3.13
2023-01-08T01:19:55.439Z,2.90
2023-01-08T01:22:22.157Z,3.27
2023-01-08T01:24:48.901Z,2.55
2023-01-08T01:27:15.614Z,2.88
2023-01-08T01:29:42.329Z,3.22
2023-01-08T01:32:09.203Z,2.72
2023-01-08T01:34:35.980Z,2.70
2023-01-08T01:37:04.111Z,2.72
2023-01-08T01:39:30.826Z,3.13
2023-01-08T01:41:57.583Z,2.38
2023-01-08T01:44:37.442Z,4.05
2023-01-08T01:47:10.606Z,2.80
2023-01-08T01:49:38.670Z,3.15
2023-01-08T01:52:09.159Z,3.10
2023-01-08T01:54:36.407Z,3.10
2023-01-08T01:57:05.825Z,2.83
2023-01-08T01:59:32.662Z,2.80
2023-01-08T02:02:00.227Z,3.78
2023-01-08T02:04:27.114Z,3.22
2023-01-08T02:07:01.335Z,2.88
2023-01-08T02:09:38.405Z,3.60
2023-01-08T02:12:08.139Z,3.78
2023-01-08T02:14:43.488Z,3.25
2023-01-08T02:17:16.206Z,4.30
2023-01-08T02:19:46.469Z,2.67
2023-01-08T02:22:26.081Z,3.15
2023-01-08T02:25:02.131Z,2.55
2023-01-08T02:27:32.354Z,2.60
2023-01-08T02:30:00.164Z,3.17
2023-01-08T02:32:27.893Z,3.33
2023-01-08T02:34:55.174Z,3.40
2023-01-08T02:37:22.038Z,3.05
2023-01-08T02:40:11.135Z,2.65
2023-01-08T02:42:47.649Z,2.90
2023-01-08T02:45:28.335Z,2.53
2023-01-08T02:48:02.801Z,2.65
2023-01-08T02:50:34.333Z,2.40
2023-01-08T02:53:05.001Z,1.70
2023-01-08T02:55:33.374Z,1.73
2023-01-08T02:58:03.443Z,1.67
2023-01-08T03:00:31.401Z,1.67
2023-01-08T03:03:05.274Z,1.63
2023-01-08T03:05:33.259Z,1.50
2023-01-08T03:08:00.727Z,1.55
2023-01-08T03:10:30.040Z,1.55
2023-01-08T03:13:02.212Z,1.75
2023-01-08T03:15:36.283Z,1.40
2023-01-08T03:18:09.363Z,1.80
2023-01-08T03:20:37.883Z,0.90
2023-01-08T03:23:08.754Z,1.08
2023-01-08T03:25:38.264Z,0.98
2023-01-08T03:28:15.507Z,1.00
2023-01-08T03:30:43.654Z,0.90
2023-01-08T03:33:13.118Z,0.70
2023-01-08T03:35:41.779Z,1.08
2023-01-08T03:38:14.537Z,0.80
2023-01-08T03:40:45.149Z,2.00
2023-01-08T03:43:13.459Z,1.23
2023-01-08T03:45:45.141Z,1.30
2023-01-08T03:48:12.202Z,0.70
2023-01-08T03:50:41.644Z,1.38
2023-01-08T03:53:09.039Z,1.10
2023-01-08T03:55:35.836Z,1.00
2023-01-08T03:58:02.867Z,0.90
2023-01-08T04:00:30.969Z,1.38
2023-01-08T04:02:57.925Z,0.77
2023-01-08T04:05:24.902Z,1.17
2023-01-08T04:07:55.094Z,0.75
2023-01-08T04:10:21.894Z,0.60
2023-01-08T04:12:48.672Z,1.23
2023-01-08T04:15:15.540Z,0.80
2023-01-08T04:17:44.200Z,1.35
2023-01-08T04:20:11.583Z,0.77
2023-01-08T04:22:38.550Z,0.80
2023-01-08T04:25:05.807Z,1.15
2023-01-08T04:27:33.584Z,0.88
2023-01-08T04:30:00.322Z,1.00
2023-01-08T04:32:27.151Z,1.42
2023-01-08T04:34:55.207Z,0.80
2023-01-08T04:37:22.154Z,0.80
2023-01-08T04:39:48.943Z,1.10
2023-01-08T04:42:15.704Z,0.90
2023-01-08T04:44:42.443Z,1.45
2023-01-08T04:47:10.504Z,1.00
2023-01-08T04:49:37.302Z,0.90
2023-01-08T04:52:05.465Z,0.90
2023-01-08T04:54:32.452Z,1.00
2023-01-08T04:56:59.176Z,1.15
2023-01-08T04:59:25.915Z,1.20
2023-01-08T05:01:52.791Z,1.35
2023-01-08T05:04:19.625Z,0.95
2023-01-08T05:06:47.027Z,1.00
2023-01-08T05:09:15.098Z,1.58
2023-01-08T05:11:41.820Z,1.10
2023-01-08T05:14:08.799Z,1.00
2023-01-08T05:16:35.824Z,1.33
2023-01-08T05:19:02.672Z,1.27
2023-01-08T05:21:31.685Z,2.30
2023-01-08T05:26:26.908Z,1.45
2023-01-08T05:28:53.622Z,1.00
2023-01-08T05:31:20.563Z,1.42
2023-01-08T05:33:47.450Z,1.20
2023-01-08T05:36:14.329Z,2.00
2023-01-08T05:38:42.091Z,1.90
2023-01-08T05:41:10.168Z,1.23
2023-01-08T05:43:38.351Z,1.20
2023-01-08T05:46:05.469Z,1.20
2023-01-08T05:48:34.230Z,1.00
2023-01-08T05:51:01.146Z,2.17
2023-01-08T05:53:27.878Z,0.90
2023-01-08T05:55:59.452Z,2.17
2023-01-08T05:58:26.328Z,0.90
2023-01-08T06:00:54.668Z,1.40
2023-01-08T06:03:21.596Z,1.45
2023-01-08T06:05:48.317Z,1.45
2023-01-08T06:08:15.245Z,1.75
2023-01-08T06:10:42.215Z,1.15
2023-01-08T06:13:09.303Z,1.77
2023-01-08T06:15:37.999Z,1.20
2023-01-08T06:18:06.407Z,1.00
2023-01-08T06:20:33.356Z,1.00
2023-01-08T06:23:00.116Z,1.17
2023-01-08T06:25:28.094Z,0.90
2023-01-08T06:27:54.820Z,1.30
2023-01-08T06:30:21.582Z,1.02
2023-01-08T06:32:48.317Z,1.30
2023-01-08T06:35:16.503Z,1.45
2023-01-08T06:37:43.233Z,1.60
2023-01-08T06:40:10.923Z,1.27
2023-01-08T06:42:37.621Z,1.15
2023-01-08T06:45:05.184Z,1.40
2023-01-08T06:47:32.612Z,1.60
2023-01-08T06:49:59.345Z,2.75
2023-01-08T06:52:27.541Z,1.38
2023-01-08T06:54:54.375Z,1.27
2023-01-08T06:57:21.143Z,1.00
2023-01-08T06:59:47.979Z,1.25
2023-01-08T07:02:15.610Z,1.20
2023-01-08T07:04:42.482Z,1.23
2023-01-08T07:07:11.921Z,1.20
2023-01-08T07:09:40.104Z,1.00
2023-01-08T07:12:07.476Z,1.42
2023-01-08T07:14:34.177Z,1.30
2023-01-08T07:17:00.935Z,1.30
2023-01-08T07:19:27.701Z,1.92
2023-01-08T07:21:54.431Z,1.55
2023-01-08T07:24:21.166Z,1.40
2023-01-08T07:26:49.263Z,1.20
2023-01-08T07:29:15.986Z,1.30
2023-01-08T07:31:42.752Z,2.00
2023-01-08T07:34:09.479Z,1.55
2023-01-08T07:36:36.479Z,1.80
2023-01-08T07:39:03.699Z,4.25
2023-01-08T07:41:30.430Z,3.20
2023-01-08T07:43:58.633Z,2.53
2023-01-08T07:46:25.730Z,1.65
2023-01-08T07:48:52.449Z,0.90
2023-01-08T07:51:19.461Z,2.75
2023-01-08T07:53:46.159Z,1.65
2023-01-08T07:56:12.856Z,2.03
2023-01-08T07:58:39.687Z,2.28
2023-01-08T08:01:11.457Z,1.48
2023-01-08T08:03:38.489Z,1.50
2023-01-08T08:06:05.800Z,1.80
2023-01-08T08:08:32.738Z,1.48
2023-01-08T08:10:59.869Z,1.40
2023-01-08T08:13:26.593Z,2.08
2023-01-08T08:15:53.500Z,2.13
2023-01-08T08:18:21.598Z,2.65
2023-01-08T08:20:48.348Z,1.83
2023-01-08T08:23:15.418Z,2.00
2023-01-08T08:25:42.923Z,2.10
2023-01-08T08:28:11.534Z,2.53
2023-01-08T08:30:42.159Z,2.50
2023-01-08T08:33:10.002Z,1.83
2023-01-08T08:35:39.749Z,1.50
2023-01-08T08:38:06.544Z,1.80
2023-01-08T08:40:33.292Z,1.55
2023-01-08T08:43:03.715Z,1.70
2023-01-08T08:45:30.856Z,1.63
2023-01-08T08:47:57.777Z,1.77
2023-01-08T08:50:24.832Z,1.58
2023-01-08T08:52:52.946Z,1.60
2023-01-08T08:55:19.699Z,1.40
2023-01-08T08:57:47.532Z,2.47
2023-01-08T09:00:15.842Z,2.40
2023-01-08T09:02:42.925Z,1.70
2023-01-08T09:05:10.323Z,1.48
2023-01-08T09:07:37.123Z,2.10
2023-01-08T09:10:06.444Z,1.60
2023-01-08T09:12:33.611Z,2.10
2023-01-08T09:15:00.338Z,1.42
2023-01-08T09:17:30.043Z,1.40
2023-01-08T09:19:57.039Z,1.85
2023-01-08T09:22:23.819Z,2.22
2023-01-08T09:24:50.625Z,1.58
2023-01-08T09:27:18.715Z,1.83
2023-01-08T09:29:45.405Z,2.53
2023-01-08T09:32:12.385Z,1.65
2023-01-08T09:34:39.165Z,1.38
2023-01-08T09:37:06.931Z,1.02
2023-01-08T09:39:33.999Z,2.63
2023-01-08T09:42:04.538Z,1.20
2023-01-08T09:44:37.909Z,1.75
2023-01-08T09:47:07.347Z,1.40
2023-01-08T09:49:41.994Z,2.53
2023-01-08T09:52:11.583Z,1.58
2023-01-08T09:54:38.376Z,1.63
2023-01-08T09:57:05.419Z,1.80
2023-01-08T09:59:33.561Z,1.75
2023-01-08T10:02:00.619Z,1.47
2023-01-08T10:04:30.157Z,1.70
2023-01-08T10:07:01.439Z,1.52
2023-01-08T10:09:30.290Z,1.67
2023-01-08T10:12:02.067Z,2.00
2023-01-08T10:14:31.741Z,3.20
2023-01-08T10:17:02.466Z,1.88
2023-01-08T10:19:29.318Z,2.10
2023-01-08T10:21:57.441Z,2.10
2023-01-08T10:24:42.103Z,1.67
2023-01-08T10:27:12.496Z,1.88
2023-01-08T10:29:39.680Z,3.58
2023-01-08T10:32:15.410Z,1.70
2023-01-08T10:34:45.791Z,1.65
2023-01-08T10:37:22.210Z,2.38
2023-01-08T10:39:49.570Z,2.20
2023-01-08T10:42:18.840Z,1.80
2023-01-08T10:44:56.541Z,1.92
2023-01-08T10:47:28.200Z,2.00
2023-01-08T10:49:55.279Z,1.67
2023-01-08T10:52:25.423Z,1.50
2023-01-08T10:54:52.465Z,1.40
2023-01-08T10:57:24.847Z,2.35
2023-01-08T10:59:52.163Z,2.15
2023-01-08T11:02:32.914Z,1.60
2023-01-08T11:05:00.433Z,1.58
2023-01-08T11:07:30.263Z,1.73
2023-01-08T11:09:57.089Z,1.52
2023-01-08T11:12:34.039Z,2.85
2023-01-08T11:15:01.205Z,1.42
2023-01-08T11:17:29.731Z,2.03
2023-01-08T11:20:09.143Z,1.50
2023-01-08T11:22:35.888Z,1.50
2023-01-08T11:25:03.117Z,1.60
2023-01-08T11:27:32.443Z,1.27
2023-01-08T11:30:04.579Z,1.33
2023-01-08T11:32:42.800Z,1.15
2023-01-08T11:35:15.122Z,1.65
2023-01-08T11:37:46.537Z,1.40
2023-01-08T11:40:15.702Z,1.20
2023-01-08T11:42:57.720Z,1.05
2023-01-08T11:45:33.507Z,0.98
2023-01-08T11:48:25.261Z,1.60
2023-01-08T11:51:08.236Z,1.00
2023-01-08T11:53:41.590Z,0.88
2023-01-08T11:56:18.733Z,1.00
2023-01-08T11:58:57.868Z,0.90
2023-01-08T12:01:35.995Z,1.02
2023-01-08T12:04:22.152Z,1.02
2023-01-08T12:07:01.543Z,1.08
2023-01-08T12:09:38.623Z,0.70
2023-01-08T12:12:16.936Z,0.90
2023-01-08T12:14:54.616Z,1.02
2023-01-08T12:17:53.471Z,0.73
2023-01-08T12:20:30.656Z,0.50
2023-01-08T12:23:05.355Z,0.90
2023-01-08T12:26:13.944Z,0.85
2023-01-08T12:29:06.078Z,1.67
2023-01-08T12:32:03.102Z,0.60
2023-01-08T12:34:39.113Z,0.95
2023-01-08T12:37:14.572Z,0.70
2023-01-08T12:39:47.486Z,0.70
2023-01-08T12:42:19.550Z,1.27
2023-01-08T12:44:48.204Z,1.33
2023-01-08T12:47:22.145Z,0.70
2023-01-08T12:49:56.841Z,1.00
2023-01-08T12:52:28.889Z,0.80
2023-01-08T12:55:00.444Z,0.95
2023-01-08T12:57:31.829Z,0.70
2023-01-08T13:00:04.572Z,1.27
2023-01-08T13:02:37.158Z,0.88
2023-01-08T13:05:32.600Z,0.60
2023-01-08T13:08:02.570Z,0.70
2023-01-08T13:10:35.591Z,0.93
2023-01-08T13:13:03.040Z,1.55
2023-01-08T13:15:31.455Z,1.00
2023-01-08T13:18:02.948Z,0.90
2023-01-08T13:20:31.530Z,0.90
2023-01-08T13:23:01.750Z,1.42
2023-01-08T13:25:34.271Z,1.33
2023-01-08T13:28:02.132Z,1.20
2023-01-08T13:30:35.409Z,1.08
2023-01-08T13:33:02.491Z,0.57
2023-01-08T13:35:30.595Z,1.17
2023-01-08T13:38:15.255Z,1.40
2023-01-08T13:40:54.902Z,1.52
2023-01-08T13:43:24.176Z,1.13
2023-01-08T13:46:05.956Z,0.70
2023-01-08T13:48:37.087Z,1.40
2023-01-08T13:51:04.714Z,1.30
2023-01-08T13:53:33.768Z,1.50
2023-01-08T13:56:02.024Z,1.40
2023-01-08T13:58:33.307Z,1.02
2023-01-08T14:01:01.490Z,1.30
2023-01-08T14:03:30.035Z,1.73
2023-01-08T14:06:06.746Z,1.05
2023-01-08T14:08:35.141Z,2.00
2023-01-08T14:11:03.743Z,2.08
2023-01-08T14:13:32.371Z,2.22
2023-01-08T14:16:02.359Z,1.80
2023-01-08T14:18:29.400Z,0.90
2023-01-08T14:20:56.302Z,1.40
2023-01-08T14:23:26.340Z,1.20
2023-01-08T14:25:54.756Z,1.15
2023-01-08T14:28:23.091Z,1.23
2023-01-08T14:30:51.165Z,1.23
2023-01-08T14:33:20.807Z,0.97
2023-01-08T14:35:48.145Z,1.40
2023-01-08T14:38:15.030Z,1.95
2023-01-08T14:40:45.263Z,1.30
2023-01-08T14:43:16.642Z,1.10
2023-01-08T14:45:47.589Z,1.70
2023-01-08T14:48:21.084Z,1.30
2023-01-08T14:51:01.596Z,1.35
2023-01-08T14:53:31.624Z,1.08
2023-01-08T14:55:58.928Z,1.85
2023-01-08T14:58:29.979Z,1.70
2023-01-08T15:00:59.680Z,1.27
2023-01-08T15:03:33.292Z,1.50
2023-01-08T15:06:00.436Z,1.13
2023-01-08T15:08:33.352Z,1.05
2023-01-08T15:11:02.295Z,1.00
2023-01-08T15:13:37.336Z,1.10
2023-01-08T15:16:09.376Z,1.60
2023-01-08T15:18:45.262Z,1.42
2023-01-08T15:21:18.127Z,1.77
2023-01-08T15:23:48.397Z,1.40
2023-01-08T15:26:16.175Z,2.17
2023-01-08T15:28:51.937Z,1.48
2023-01-08T15:31:26.661Z,1.52
2023-01-08T15:33:53.460Z,1.65
2023-01-08T15:36:21.614Z,1.63
2023-01-08T15:38:48.824Z,1.70
2023-01-08T15:41:18.460Z,1.40
2023-01-08T15:43:45.147Z,1.42
2023-01-08T15:46:13.176Z,2.35
2023-01-08T15:48:40.370Z,1.37
2023-01-08T15:51:08.846Z,1.30
2023-01-08T15:53:35.534Z,2.30
2023-01-08T15:56:03.498Z,3.10
2023-01-08T15:58:30.439Z,4.40
2023-01-08T16:00:57.545Z,5.32
2023-01-08T16:03:25.721Z,5.85
2023-01-08T16:05:52.451Z,6.53
2023-01-08T16:08:19.215Z,6.63
2023-01-08T16:10:45.930Z,5.25
2023-01-08T16:13:12.868Z,6.57
2023-01-08T16:15:39.987Z,5.20
2023-01-08T16:18:06.739Z,4.32
2023-01-08T16:20:34.827Z,5.22
2023-01-08T16:23:01.562Z,4.73
2023-01-08T16:25:29.406Z,3.90
2023-01-08T16:27:56.153Z,3.65
2023-01-08T16:30:23.070Z,3.20
2023-01-08T16:32:51.789Z,3.35
2023-01-08T16:35:19.532Z,3.00
2023-01-08T16:37:48.818Z,2.65
2023-01-08T16:40:16.068Z,2.88
2023-01-08T16:42:42.785Z,3.95
2023-01-08T16:45:10.183Z,2.97
2023-01-08T16:47:37.677Z,3.83
2023-01-08T16:50:05.364Z,3.70
2023-01-08T16:52:32.165Z,4.50
2023-01-08T16:55:00.441Z,3.05
2023-01-08T16:57:27.211Z,2.58
2023-01-08T16:59:54.005Z,3.22
2023-01-08T17:02:22.779Z,3.40
2023-01-08T17:04:49.486Z,2.70
2023-01-08T17:07:16.220Z,3.35
2023-01-08T17:09:43.995Z,3.20
2023-01-08T17:12:12.084Z,2.70
2023-01-08T17:14:38.820Z,2.60
2023-01-08T17:17:05.543Z,3.08
2023-01-08T17:19:32.323Z,1.77
2023-01-08T17:21:59.017Z,2.30
2023-01-08T17:24:25.991Z,2.20
2023-01-08T17:26:52.712Z,2.28
2023-01-08T17:29:22.353Z,2.05
2023-01-08T17:31:49.203Z,2.40
2023-01-08T17:34:16.007Z,2.20
2023-01-08T17:36:43.042Z,2.53
2023-01-08T17:39:11.844Z,2.40
2023-01-08T17:41:39.761Z,2.50
2023-01-08T17:44:08.954Z,3.35
2023-01-08T17:46:38.950Z,3.00
2023-01-08T17:49:05.876Z,2.50
2023-01-08T17:51:32.618Z,3.83
2023-01-08T17:53:59.950Z,2.90
2023-01-08T17:56:27.248Z,3.00
2023-01-08T17:58:54.053Z,2.20
2023-01-08T18:01:21.701Z,2.50
2023-01-08T18:03:49.804Z,2.03
2023-01-08T18:06:16.608Z,2.50
2023-01-08T18:08:43.548Z,2.75
2023-01-08T18:11:10.675Z,3.40
2023-01-08T18:13:38.111Z,3.80
2023-01-08T18:16:06.919Z,3.38
2023-01-08T18:18:34.588Z,3.20
2023-01-08T18:21:02.942Z,3.33
2023-01-08T18:23:30.593Z,2.83
2023-01-08T18:26:02.739Z,2.50
2023-01-08T18:28:29.487Z,2.03
2023-01-08T18:30:56.236Z,2.80
2023-01-08T18:33:22.957Z,2.60
2023-01-08T18:35:49.762Z,3.60
2023-01-08T18:38:17.809Z,3.08
2023-01-08T18:40:45.612Z,2.87
2023-01-08T18:43:12.480Z,2.95
2023-01-08T18:45:39.639Z,3.58
2023-01-08T18:48:07.274Z,2.38
2023-01-08T18:50:34.027Z,2.80
2023-01-08T18:53:00.975Z,2.60
2023-01-08T18:55:29.055Z,2.05
2023-01-08T18:57:55.848Z,1.97
2023-01-08T19:00:22.888Z,2.10
2023-01-08T19:02:49.710Z,1.30
2023-01-08T19:05:16.538Z,2.20
2023-01-08T19:07:43.295Z,1.80
2023-01-08T19:10:11.500Z,1.90
2023-01-08T19:12:39.617Z,1.75
2023-01-08T19:15:07.436Z,1.80
2023-01-08T19:17:35.357Z,1.70
2023-01-08T19:20:04.945Z,1.42
2023-01-08T19:22:32.290Z,1.70
2023-01-08T19:24:59.357Z,2.90
2023-01-08T19:27:28.736Z,2.10
2023-01-08T19:29:56.832Z,2.05
2023-01-08T19:32:23.546Z,1.77
2023-01-08T19:34:50.277Z,1.65
2023-01-08T19:37:17.003Z,1.40
2023-01-08T19:39:43.784Z,1.95
2023-01-08T19:42:12.316Z,1.67
2023-01-08T19:44:39.162Z,1.50
2023-01-08T19:47:10.176Z,1.70
2023-01-08T19:49:36.981Z,1.50
2023-01-08T19:52:03.830Z,1.50
2023-01-08T19:54:31.062Z,1.73
2023-01-08T19:56:57.889Z,1.80
2023-01-08T19:59:24.890Z,1.60
2023-01-08T20:01:51.736Z,1.60
2023-01-08T20:04:19.905Z,1.98
2023-01-08T20:06:46.618Z,2.00
2023-01-08T20:09:13.634Z,1.67
2023-01-08T20:11:40.357Z,1.60
2023-01-08T20:14:07.149Z,1.70
2023-01-08T20:16:33.988Z,1.83
2023-01-08T20:19:02.681Z,1.83
2023-01-08T20:21:31.641Z,1.40
2023-01-08T20:26:28.258Z,1.70
2023-01-08T20:31:26.537Z,1.58
2023-01-08T20:36:23.877Z,1.40
2023-01-08T20:38:53.793Z,2.28
2023-01-08T20:41:20.637Z,2.63
2023-01-08T20:43:47.474Z,1.70
2023-01-08T20:46:14.770Z,1.35
2023-01-08T20:48:48.354Z,1.73
2023-01-08T20:51:16.021Z,1.70
2023-01-08T20:53:43.841Z,1.67
2023-01-08T20:56:13.982Z,1.38
2023-01-08T20:58:43.533Z,1.50
2023-01-08T21:01:13.248Z,1.40
2023-01-08T21:03:40.475Z,1.60
2023-01-08T21:06:09.212Z,2.45
2023-01-08T21:08:36.345Z,2.70
2023-01-08T21:11:05.781Z,2.60
2023-01-08T21:13:34.140Z,2.10
2023-01-08T21:16:03.334Z,2.10
2023-01-08T21:18:33.434Z,2.33
2023-01-08T21:21:01.397Z,2.10
2023-01-08T21:23:28.418Z,2.35
2023-01-08T21:25:56.132Z,1.52
2023-01-08T21:28:23.157Z,1.50
2023-01-08T21:30:51.536Z,2.67
2023-01-08T21:33:18.582Z,2.50
2023-01-08T21:35:45.325Z,1.50
2023-01-08T21:38:12.201Z,2.95
2023-01-08T21:40:38.938Z,2.10
2023-01-08T21:43:05.753Z,1.80
2023-01-08T21:45:36.061Z,2.38
2023-01-08T21:48:04.759Z,1.60
2023-01-08T21:50:31.483Z,2.33
2023-01-08T21:52:58.198Z,1.73
2023-01-08T21:55:24.924Z,2.30
2023-01-08T21:57:51.773Z,1.90
2023-01-08T22:00:18.996Z,1.42
2023-01-08T22:02:45.761Z,1.20
2023-01-08T22:05:13.885Z,1.95
2023-01-08T22:07:40.996Z,1.92
2023-01-08T22:10:09.108Z,1.33
2023-01-08T22:12:35.814Z,1.23
2023-01-08T22:15:02.559Z,1.30
2023-01-08T22:17:30.692Z,1.20
2023-01-08T22:19:57.465Z,1.40
2023-01-08T22:22:25.662Z,1.48
2023-01-08T22:24:52.571Z,1.45
2023-01-08T22:27:19.351Z,1.40
2023-01-08T22:29:46.944Z,1.08
2023-01-08T22:32:13.771Z,1.60
2023-01-08T22:34:40.897Z,1.27
2023-01-08T22:37:07.639Z,1.80
2023-01-08T22:39:37.015Z,1.70
2023-01-08T22:42:04.246Z,1.73
2023-01-08T22:44:31.079Z,1.35
2023-01-08T22:46:58.105Z,2.33
2023-01-08T22:49:24.872Z,2.65
2023-01-08T22:51:51.846Z,2.80
2023-01-08T22:54:18.641Z,1.50
2023-01-08T22:56:46.710Z,1.50
2023-01-08T22:59:13.527Z,1.47
2023-01-08T23:01:40.394Z,2.22
2023-01-08T23:04:07.249Z,1.67
2023-01-08T23:06:34.511Z,2.67
2023-01-08T23:09:01.487Z,1.20
2023-01-08T23:11:28.635Z,2.25
2023-01-08T23:13:56.742Z,1.50
2023-01-08T23:16:25.340Z,1.10
2023-01-08T23:18:55.887Z,1.23
2023-01-08T23:21:24.318Z,1.40
2023-01-08T23:23:51.703Z,2.25
2023-01-08T23:26:21.490Z,1.35
2023-01-08T23:28:49.745Z,1.60
2023-01-08T23:31:20.508Z,1.08
2023-01-08T23:33:47.570Z,1.40
2023-01-08T23:36:14.483Z,1.00
2023-01-08T23:38:41.183Z,1.85
2023-01-08T23:41:07.906Z,0.82
2023-01-08T23:43:34.673Z,0.80
2023-01-08T23:46:02.602Z,1.27
2023-01-08T23:48:31.193Z,0.55
2023-01-08T23:50:58.223Z,0.63
2023-01-08T23:53:25.078Z,1.20
2023-01-08T23:55:51.873Z,1.15
2023-01-08T23:58:18.836Z,0.60
